Time;durP1;ratioP1;P1;durP2;ratioP2;P2;SDS_P1;SDS_P2;PMS_P1;PMS_P2;Temp;Humidity;BMP_temperature;BMP_pressure;BME280_temperature;BME280_humidity;BME280_pressure;Samples;Min_cycle;Max_cycle;Signal;HPM_P1;HPM_P2
2023/05/30 00:02:09;;;;;;;16.13;4.25;;;11.00;99.90;;;;;;5091814;28;20040;-65
2023/05/30 00:04:35;;;;;;;16.90;4.10;;;11.00;99.90;;;;;;5087763;28;20546;-65
2023/05/30 00:07:02;;;;;;;18.52;4.40;;;11.00;99.90;;;;;;5092476;28;20093;-65
2023/05/30 00:09:28;;;;;;;21.20;4.57;;;11.00;99.90;;;;;;5091743;28;20059;-65
2023/05/30 00:11:56;;;;;;;12.32;4.25;;;11.00;99.90;;;;;;5092387;28;20032;-65
2023/05/30 00:14:23;;;;;;;21.05;4.93;;;11.00;99.90;;;;;;5091719;28;20048;-65
2023/05/30 00:16:49;;;;;;;13.23;4.18;;;11.00;99.90;;;;;;5088881;28;20545;-66
2023/05/30 00:19:14;;;;;;;18.33;5.05;;;10.90;99.90;;;;;;5090838;28;20121;-65
2023/05/30 00:21:40;;;;;;;13.68;4.20;;;10.90;99.90;;;;;;5092062;28;20071;-66
2023/05/30 00:24:06;;;;;;;17.95;4.47;;;10.90;99.90;;;;;;5091010;28;20039;-66
2023/05/30 00:26:32;;;;;;;15.60;4.47;;;11.00;99.90;;;;;;5092403;28;20035;-65
2023/05/30 00:28:57;;;;;;;14.60;4.70;;;11.00;99.90;;;;;;5087806;28;20044;-65
2023/05/30 00:31:23;;;;;;;17.20;5.40;;;11.00;99.90;;;;;;5083600;28;20039;-65
2023/05/30 00:33:50;;;;;;;14.85;4.57;;;11.00;99.90;;;;;;5084437;28;20040;-66
2023/05/30 00:36:21;;;;;;;15.30;4.55;;;11.00;99.90;;;;;;5086427;28;20043;-65
2023/05/30 00:38:47;;;;;;;16.42;4.35;;;11.00;99.90;;;;;;5091691;28;20036;-65
2023/05/30 00:41:12;;;;;;;19.52;4.38;;;11.00;99.90;;;;;;5098862;28;20382;-65
2023/05/30 00:43:38;;;;;;;18.08;4.68;;;11.00;99.90;;;;;;5090882;28;20074;-65
2023/05/30 00:46:04;;;;;;;13.85;4.57;;;11.00;99.90;;;;;;5092335;28;20040;-65
2023/05/30 00:48:30;;;;;;;16.58;4.32;;;11.00;99.90;;;;;;5085840;28;20036;-65
2023/05/30 00:50:56;;;;;;;16.42;4.22;;;11.00;99.90;;;;;;5091645;28;20028;-65
2023/05/30 00:53:22;;;;;;;13.60;4.35;;;11.00;99.90;;;;;;5091434;28;20062;-65
2023/05/30 00:55:48;;;;;;;19.88;4.38;;;11.10;99.90;;;;;;5091138;28;20102;-65
2023/05/30 00:58:15;;;;;;;11.75;4.03;;;11.10;99.90;;;;;;5071625;28;20040;-65
2023/05/30 01:00:41;;;;;;;15.45;4.18;;;11.10;99.90;;;;;;5074289;28;20090;-65
2023/05/30 01:03:09;;;;;;;16.00;4.63;;;11.20;99.90;;;;;;5087031;28;20094;-65
2023/05/30 01:05:35;;;;;;;10.45;3.63;;;11.20;99.90;;;;;;5092236;28;20041;-65
2023/05/30 01:08:02;;;;;;;12.30;3.67;;;11.20;99.90;;;;;;5089895;28;20032;-65
2023/05/30 01:10:30;;;;;;;15.35;4.60;;;11.20;99.90;;;;;;5090909;28;20035;-65
2023/05/30 01:13:09;;;;;;;16.25;4.68;;;11.20;99.90;;;;;;5101644;28;20401;-66
2023/05/30 01:16:06;;;;;;;17.55;4.03;;;11.20;99.90;;;;;;5084373;28;20456;-65
2023/05/30 01:18:33;;;;;;;14.65;4.72;;;11.20;99.90;;;;;;5095967;27;20516;-65
2023/05/30 01:21:02;;;;;;;14.73;4.35;;;11.20;99.90;;;;;;5085062;28;20032;-65
2023/05/30 01:24:06;;;;;;;14.55;4.38;;;11.20;99.90;;;;;;5090724;28;20101;-65
2023/05/30 01:26:54;;;;;;;13.57;4.10;;;11.20;99.90;;;;;;5091000;28;20040;-66
2023/05/30 01:29:23;;;;;;;11.23;4.38;;;11.20;99.90;;;;;;5079976;28;20047;-65
2023/05/30 01:31:48;;;;;;;14.50;4.40;;;11.10;99.90;;;;;;5089306;28;20032;-66
2023/05/30 01:34:15;;;;;;;13.18;5.07;;;11.10;99.90;;;;;;5102718;28;20057;-65
2023/05/30 01:36:40;;;;;;;17.55;4.65;;;11.10;99.90;;;;;;5096657;28;20058;-66
2023/05/30 01:39:07;;;;;;;11.43;4.40;;;11.10;99.90;;;;;;5091394;28;20111;-66
2023/05/30 01:41:51;;;;;;;14.77;4.88;;;11.10;99.90;;;;;;5090187;28;20042;-66
2023/05/30 01:44:36;;;;;;;12.90;4.60;;;11.20;99.90;;;;;;5092204;28;20036;-66
2023/05/30 01:47:31;;;;;;;12.35;4.38;;;11.20;99.90;;;;;;5099686;28;20148;-66
2023/05/30 01:50:10;;;;;;;15.13;5.57;;;11.20;99.90;;;;;;5068718;28;20044;-66
2023/05/30 01:52:40;;;;;;;15.93;4.82;;;11.20;99.90;;;;;;5089640;28;20072;-66
2023/05/30 01:55:08;;;;;;;13.25;4.72;;;11.20;99.90;;;;;;5090795;28;20549;-66
2023/05/30 01:57:42;;;;;;;15.07;4.57;;;11.20;99.90;;;;;;5087575;28;20044;-66
2023/05/30 02:00:10;;;;;;;12.40;4.13;;;11.20;99.90;;;;;;5082596;28;20524;-66
2023/05/30 02:02:36;;;;;;;11.98;4.40;;;11.10;99.90;;;;;;5082686;28;20068;-66
2023/05/30 02:05:01;;;;;;;13.80;4.20;;;11.10;99.90;;;;;;5083552;28;20066;-66
2023/05/30 02:07:27;;;;;;;11.20;4.03;;;11.20;99.90;;;;;;5082927;28;20036;-66
2023/05/30 02:09:52;;;;;;;14.18;5.28;;;11.20;99.90;;;;;;5093699;28;20040;-66
2023/05/30 02:12:18;;;;;;;17.77;4.18;;;11.10;99.90;;;;;;5091761;28;20035;-66
2023/05/30 02:14:44;;;;;;;13.57;4.32;;;11.20;99.90;;;;;;5089491;28;20036;-66
2023/05/30 02:17:09;;;;;;;14.10;5.22;;;11.20;99.90;;;;;;5097440;28;20047;-66
2023/05/30 02:19:35;;;;;;;15.25;4.50;;;11.10;99.90;;;;;;5093444;28;20036;-66
2023/05/30 02:22:00;;;;;;;9.48;3.65;;;11.10;99.90;;;;;;5092078;28;20094;-66
2023/05/30 02:24:26;;;;;;;14.57;4.25;;;11.10;99.90;;;;;;5085605;28;20166;-66
2023/05/30 02:26:52;;;;;;;12.55;4.13;;;11.10;99.90;;;;;;5094718;28;20036;-66
2023/05/30 02:29:17;;;;;;;13.45;4.22;;;11.10;99.90;;;;;;5094751;28;20055;-66
2023/05/30 02:31:43;;;;;;;9.43;4.35;;;11.10;99.90;;;;;;5071007;22;20037;-64
2023/05/30 02:34:08;;;;;;;9.57;3.85;;;11.10;99.90;;;;;;5036219;28;20568;-65
2023/05/30 02:36:38;;;;;;;11.00;4.43;;;11.10;99.90;;;;;;5024278;28;20053;-65
2023/05/30 02:39:07;;;;;;;13.73;4.38;;;11.10;99.90;;;;;;5024258;28;20049;-64
2023/05/30 02:41:33;;;;;;;12.25;4.22;;;11.10;99.90;;;;;;5032422;28;20044;-64
2023/05/30 02:43:58;;;;;;;14.68;4.07;;;11.10;99.90;;;;;;5033892;28;20042;-65
2023/05/30 02:46:24;;;;;;;16.15;4.57;;;11.10;99.90;;;;;;5033382;28;20046;-65
2023/05/30 02:48:49;;;;;;;16.30;4.60;;;11.10;99.90;;;;;;5033745;28;20498;-64
2023/05/30 02:51:15;;;;;;;11.60;4.10;;;11.10;99.90;;;;;;5032771;28;20037;-65
2023/05/30 02:53:41;;;;;;;14.05;4.13;;;11.10;99.90;;;;;;5034819;28;20041;-64
2023/05/30 02:56:06;;;;;;;12.10;4.50;;;11.10;99.90;;;;;;5033213;28;20034;-64
2023/05/30 02:58:45;;;;;;;13.10;4.50;;;11.10;99.90;;;;;;5031644;28;20135;-64
2023/05/30 03:01:11;;;;;;;12.07;4.35;;;11.10;99.90;;;;;;5033894;28;20052;-64
2023/05/30 03:03:37;;;;;;;11.43;4.05;;;11.10;99.90;;;;;;5034341;28;20221;-64
2023/05/30 03:06:04;;;;;;;14.40;4.43;;;11.10;99.90;;;;;;5034099;28;20042;-64
2023/05/30 03:08:30;;;;;;;13.63;4.70;;;11.10;99.90;;;;;;5033401;28;20116;-64
2023/05/30 03:10:56;;;;;;;13.52;4.43;;;11.10;99.90;;;;;;5032673;28;20037;-64
2023/05/30 03:13:22;;;;;;;11.50;4.25;;;11.10;99.90;;;;;;5032514;28;20045;-64
2023/05/30 03:15:48;;;;;;;12.70;3.95;;;11.10;99.90;;;;;;5032277;28;20037;-64
2023/05/30 03:18:13;;;;;;;11.05;4.07;;;11.10;99.90;;;;;;5033610;28;20044;-64
2023/05/30 03:20:40;;;;;;;11.98;4.28;;;11.10;99.90;;;;;;5033102;28;20128;-65
2023/05/30 03:23:06;;;;;;;11.93;4.50;;;11.10;99.90;;;;;;5033668;28;20041;-64
2023/05/30 03:25:32;;;;;;;17.70;4.05;;;11.10;99.90;;;;;;5034066;28;20035;-64
2023/05/30 03:27:58;;;;;;;15.95;4.57;;;11.10;99.90;;;;;;5032964;28;20069;-64
2023/05/30 03:30:27;;;;;;;12.57;4.47;;;11.10;99.90;;;;;;5032062;28;20077;-64
2023/05/30 03:32:53;;;;;;;15.65;4.40;;;11.10;99.90;;;;;;5029784;28;20057;-64
2023/05/30 03:35:19;;;;;;;11.15;4.10;;;11.10;99.90;;;;;;5033893;28;20037;-64
2023/05/30 03:37:44;;;;;;;12.98;4.85;;;11.10;99.90;;;;;;5031586;28;20037;-64
2023/05/30 03:40:11;;;;;;;11.32;3.78;;;11.10;99.90;;;;;;5032320;28;20033;-64
2023/05/30 03:42:37;;;;;;;11.73;4.63;;;11.10;99.90;;;;;;5032489;28;20029;-64
2023/05/30 03:45:02;;;;;;;15.52;3.90;;;11.10;99.90;;;;;;5032531;28;20491;-64
2023/05/30 03:47:28;;;;;;;15.32;4.65;;;11.10;99.90;;;;;;5031685;28;20029;-64
2023/05/30 03:49:53;;;;;;;10.48;4.32;;;11.20;99.90;;;;;;5031017;28;20030;-64
2023/05/30 03:52:19;;;;;;;15.05;4.65;;;11.20;99.90;;;;;;5024794;28;20445;-64
2023/05/30 03:54:45;;;;;;;13.40;4.35;;;11.10;99.90;;;;;;5030044;28;20041;-64
2023/05/30 03:57:11;;;;;;;13.55;4.43;;;11.10;99.90;;;;;;5028764;28;20037;-64
2023/05/30 03:59:36;;;;;;;11.65;4.47;;;11.20;99.90;;;;;;5030450;28;20072;-64
2023/05/30 04:02:02;;;;;;;14.65;4.03;;;11.20;99.90;;;;;;5019430;28;20116;-64
2023/05/30 04:04:28;;;;;;;13.63;4.50;;;11.20;99.90;;;;;;5026377;28;20132;-64
2023/05/30 04:06:53;;;;;;;12.27;3.83;;;11.20;99.90;;;;;;5030870;28;20049;-64
2023/05/30 04:09:19;;;;;;;11.82;4.40;;;11.20;99.90;;;;;;5032480;28;20112;-64
2023/05/30 04:11:45;;;;;;;11.55;4.22;;;11.20;99.90;;;;;;5026972;28;20511;-64
2023/05/30 04:14:11;;;;;;;17.58;4.60;;;11.20;99.90;;;;;;5028869;28;20057;-64
2023/05/30 04:16:37;;;;;;;17.40;4.72;;;11.20;99.90;;;;;;5030922;28;20041;-64
2023/05/30 04:19:02;;;;;;;12.25;4.20;;;11.30;99.90;;;;;;5031541;28;20033;-64
2023/05/30 04:21:28;;;;;;;11.07;4.43;;;11.30;99.90;;;;;;5033210;28;20049;-64
2023/05/30 04:23:54;;;;;;;14.07;4.00;;;11.30;99.90;;;;;;5032035;28;20041;-64
2023/05/30 04:26:22;;;;;;;10.65;4.10;;;11.30;99.90;;;;;;5032595;28;20037;-64
2023/05/30 04:28:48;;;;;;;16.33;4.13;;;11.30;99.90;;;;;;5031174;28;20045;-64
2023/05/30 04:31:14;;;;;;;15.65;4.40;;;11.40;99.90;;;;;;5028761;28;20038;-64
2023/05/30 04:33:40;;;;;;;9.10;3.95;;;11.40;99.90;;;;;;5026756;28;20095;-64
2023/05/30 04:36:10;;;;;;;13.80;4.07;;;11.40;99.90;;;;;;5028334;28;20096;-64
2023/05/30 04:38:37;;;;;;;13.95;4.28;;;11.40;99.90;;;;;;5028787;28;20041;-64
2023/05/30 04:41:04;;;;;;;15.80;4.70;;;11.40;99.90;;;;;;5031503;28;20038;-65
2023/05/30 04:43:30;;;;;;;14.10;5.00;;;11.40;99.90;;;;;;5030838;28;20067;-64
2023/05/30 04:45:58;;;;;;;19.10;5.22;;;11.50;99.90;;;;;;5024503;28;20446;-65
2023/05/30 04:48:24;;;;;;;12.90;4.88;;;11.50;99.90;;;;;;5031998;28;20042;-64
2023/05/30 04:50:49;;;;;;;14.32;4.57;;;11.60;99.90;;;;;;5029802;28;20091;-66
2023/05/30 04:53:15;;;;;;;11.90;4.28;;;11.60;99.90;;;;;;5030682;28;20037;-65
2023/05/30 04:55:44;;;;;;;15.23;4.60;;;11.60;99.90;;;;;;5030539;28;20087;-65
2023/05/30 04:58:13;;;;;;;14.10;4.95;;;11.70;99.90;;;;;;5030284;28;20124;-65
2023/05/30 05:00:39;;;;;;;13.00;4.25;;;11.70;99.90;;;;;;5031046;28;20168;-65
2023/05/30 05:03:06;;;;;;;15.95;5.30;;;11.60;99.90;;;;;;5028636;28;20519;-65
2023/05/30 05:05:32;;;;;;;12.82;4.95;;;11.70;99.90;;;;;;5030361;28;20065;-65
2023/05/30 05:07:57;;;;;;;13.73;4.68;;;11.70;99.90;;;;;;5031781;28;20064;-65
2023/05/30 05:10:23;;;;;;;15.80;4.88;;;11.70;99.90;;;;;;5029799;28;20076;-65
2023/05/30 05:12:49;;;;;;;15.38;4.53;;;11.70;99.90;;;;;;5029440;28;20040;-65
2023/05/30 05:15:14;;;;;;;12.30;3.90;;;11.80;99.90;;;;;;5027511;28;20501;-65
2023/05/30 05:17:40;;;;;;;14.45;4.95;;;11.80;99.90;;;;;;5030703;28;20049;-65
2023/05/30 05:20:07;;;;;;;14.10;4.90;;;11.80;99.90;;;;;;5029462;28;20069;-65
2023/05/30 05:22:33;;;;;;;12.65;4.18;;;11.80;99.90;;;;;;5030010;28;20578;-65
2023/05/30 05:24:58;;;;;;;15.65;4.70;;;11.70;99.90;;;;;;5028462;28;20063;-65
2023/05/30 05:27:26;;;;;;;13.23;5.15;;;11.90;99.90;;;;;;5029402;28;20037;-65
2023/05/30 05:29:51;;;;;;;15.50;5.07;;;11.90;99.90;;;;;;5030703;28;20037;-65
2023/05/30 05:32:17;;;;;;;9.52;4.63;;;11.90;99.90;;;;;;5029202;28;20048;-65
2023/05/30 05:34:43;;;;;;;16.73;4.78;;;12.00;99.90;;;;;;5028526;28;20399;-65
2023/05/30 05:37:08;;;;;;;16.33;5.13;;;12.00;99.90;;;;;;5027243;28;20555;-65
2023/05/30 05:39:34;;;;;;;13.25;4.60;;;12.00;99.90;;;;;;5015640;28;20499;-65
2023/05/30 05:42:01;;;;;;;13.80;4.72;;;12.00;99.90;;;;;;5013743;28;20045;-65
2023/05/30 05:44:27;;;;;;;12.07;4.07;;;12.10;99.90;;;;;;5020965;28;20607;-65
2023/05/30 05:46:53;;;;;;;11.85;3.88;;;12.20;99.90;;;;;;5031380;28;20115;-65
2023/05/30 05:49:18;;;;;;;18.42;4.82;;;12.20;99.90;;;;;;5031343;28;20069;-66
2023/05/30 05:51:44;;;;;;;10.20;4.10;;;12.20;99.90;;;;;;5023191;28;20041;-65
2023/05/30 05:54:10;;;;;;;16.15;4.70;;;12.30;99.90;;;;;;5030316;28;20033;-65
2023/05/30 05:56:36;;;;;;;17.52;4.00;;;12.40;99.90;;;;;;5028870;28;20499;-65
2023/05/30 05:59:02;;;;;;;10.85;3.78;;;12.30;99.90;;;;;;5031066;28;20132;-65
2023/05/30 06:01:27;;;;;;;15.63;4.35;;;12.30;99.90;;;;;;5031202;28;20116;-66
2023/05/30 06:03:53;;;;;;;14.05;4.75;;;12.30;99.90;;;;;;5024630;28;20095;-65
2023/05/30 06:06:18;;;;;;;11.88;3.90;;;12.30;99.90;;;;;;5027525;28;20057;-65
2023/05/30 06:08:46;;;;;;;11.68;4.22;;;12.30;99.90;;;;;;5026882;28;20081;-66
2023/05/30 06:11:11;;;;;;;12.00;4.38;;;12.30;99.90;;;;;;5026897;28;20061;-66
2023/05/30 06:13:37;;;;;;;15.48;3.97;;;12.20;99.90;;;;;;5027690;28;20119;-66
2023/05/30 06:16:02;;;;;;;15.15;4.03;;;12.20;99.90;;;;;;5027101;28;20048;-65
2023/05/30 06:18:28;;;;;;;14.38;4.30;;;12.20;99.90;;;;;;5032171;28;20038;-65
2023/05/30 06:20:54;;;;;;;12.23;4.30;;;12.20;99.90;;;;;;5034093;28;20042;-65
2023/05/30 06:23:19;;;;;;;14.38;3.92;;;12.20;99.90;;;;;;5032880;28;20038;-65
2023/05/30 06:25:45;;;;;;;13.65;3.90;;;12.30;99.90;;;;;;5030154;28;20522;-66
2023/05/30 06:28:11;;;;;;;17.88;4.88;;;12.30;99.90;;;;;;5034017;28;20033;-66
2023/05/30 06:30:36;;;;;;;18.85;4.20;;;12.20;99.90;;;;;;5028535;28;20037;-66
2023/05/30 06:33:03;;;;;;;13.50;4.38;;;12.30;99.90;;;;;;5031925;28;20038;-65
2023/05/30 06:35:28;;;;;;;11.23;3.88;;;12.40;99.90;;;;;;5032675;28;20034;-65
2023/05/30 06:37:54;;;;;;;15.60;4.72;;;12.40;99.90;;;;;;5034085;28;20556;-65
2023/05/30 06:40:19;;;;;;;19.38;4.72;;;12.40;99.90;;;;;;5029171;28;20045;-65
2023/05/30 06:42:45;;;;;;;13.20;3.97;;;12.40;99.90;;;;;;5031331;28;20517;-65
2023/05/30 06:45:12;;;;;;;11.38;3.80;;;12.50;99.90;;;;;;5032817;28;20044;-65
2023/05/30 06:47:38;;;;;;;12.70;4.30;;;12.50;99.90;;;;;;5033337;28;20033;-65
2023/05/30 06:50:05;;;;;;;16.85;4.40;;;12.50;99.90;;;;;;5028285;28;20040;-65
2023/05/30 06:52:31;;;;;;;12.75;4.05;;;12.50;99.90;;;;;;5032582;28;20083;-65
2023/05/30 06:54:56;;;;;;;10.80;3.90;;;12.50;99.90;;;;;;5034215;28;20041;-66
2023/05/30 06:57:22;;;;;;;14.63;3.88;;;12.50;99.90;;;;;;5032919;28;20049;-65
2023/05/30 06:59:47;;;;;;;11.27;4.20;;;12.50;99.90;;;;;;5031313;28;20115;-65
2023/05/30 07:02:13;;;;;;;12.65;4.43;;;12.40;99.90;;;;;;5033569;28;20037;-65
2023/05/30 07:04:38;;;;;;;13.45;4.43;;;12.40;99.90;;;;;;5032318;28;20521;-65
2023/05/30 07:07:05;;;;;;;15.43;4.15;;;12.50;99.90;;;;;;5034389;28;20087;-65
2023/05/30 07:09:31;;;;;;;12.50;4.07;;;12.50;99.90;;;;;;5033312;28;20399;-65
2023/05/30 07:11:56;;;;;;;14.20;4.45;;;12.50;99.90;;;;;;5034554;28;20033;-65
2023/05/30 07:14:22;;;;;;;12.60;4.45;;;12.50;99.90;;;;;;5033695;28;20033;-66
2023/05/30 07:16:47;;;;;;;15.68;5.15;;;12.50;99.90;;;;;;5032231;28;20083;-65
2023/05/30 07:19:13;;;;;;;16.95;4.47;;;12.50;99.90;;;;;;5033143;28;20112;-65
2023/05/30 07:21:39;;;;;;;16.70;4.72;;;12.50;99.90;;;;;;5027870;28;20045;-65
2023/05/30 07:24:05;;;;;;;16.05;3.92;;;12.50;99.90;;;;;;5033824;28;20406;-66
2023/05/30 07:26:31;;;;;;;15.02;4.03;;;12.50;99.90;;;;;;5034205;28;20042;-66
2023/05/30 07:28:57;;;;;;;10.05;3.67;;;12.50;99.90;;;;;;5034219;28;20034;-66
2023/05/30 07:31:23;;;;;;;12.65;4.50;;;12.50;99.90;;;;;;5032304;28;20510;-66
2023/05/30 07:33:49;;;;;;;13.88;4.45;;;12.50;99.90;;;;;;5033740;28;20049;-66
2023/05/30 07:36:14;;;;;;;13.02;3.83;;;12.40;99.90;;;;;;5033046;28;20087;-66
2023/05/30 07:38:40;;;;;;;12.07;3.78;;;12.40;99.90;;;;;;5033532;28;20052;-66
2023/05/30 07:41:06;;;;;;;9.80;3.97;;;12.40;99.90;;;;;;5033664;28;20045;-66
2023/05/30 07:43:32;;;;;;;9.63;4.05;;;12.40;99.90;;;;;;5028849;28;20518;-66
2023/05/30 07:45:57;;;;;;;11.38;4.28;;;12.40;99.90;;;;;;5030951;28;20029;-70
2023/05/30 07:48:23;;;;;;;9.95;3.85;;;12.40;99.90;;;;;;5031963;28;20046;-69
2023/05/30 07:50:49;;;;;;;10.98;3.80;;;12.40;99.90;;;;;;5031410;28;20117;-69
2023/05/30 07:53:15;;;;;;;11.23;3.80;;;12.40;99.90;;;;;;5033536;28;20549;-68
2023/05/30 07:55:40;;;;;;;7.85;3.60;;;12.40;99.90;;;;;;5033307;28;20040;-68
2023/05/30 07:58:06;;;;;;;11.75;4.07;;;12.40;99.90;;;;;;5031959;28;20385;-69
2023/05/30 08:00:31;;;;;;;12.48;4.22;;;12.40;99.90;;;;;;5033077;28;20041;-68
2023/05/30 08:02:57;;;;;;;9.38;4.10;;;12.40;99.90;;;;;;5030211;28;20044;-68
2023/05/30 08:05:22;;;;;;;11.60;4.28;;;12.40;99.90;;;;;;5029071;28;20403;-69
2023/05/30 08:07:48;;;;;;;12.88;4.50;;;12.30;99.90;;;;;;5030521;28;20298;-68
2023/05/30 08:10:14;;;;;;;10.23;3.90;;;12.30;99.90;;;;;;5033117;28;20064;-69
2023/05/30 08:12:39;;;;;;;7.80;3.58;;;12.30;99.90;;;;;;5032673;28;20500;-68
2023/05/30 08:15:07;;;;;;;6.53;3.85;;;12.30;99.90;;;;;;5032900;28;20041;-68
2023/05/30 08:17:33;;;;;;;9.48;3.60;;;12.40;99.90;;;;;;5029625;28;20048;-69
2023/05/30 08:20:00;;;;;;;10.25;4.15;;;12.40;99.90;;;;;;5030428;28;20029;-70
2023/05/30 08:22:25;;;;;;;8.35;3.95;;;12.40;99.90;;;;;;5031670;28;20042;-69
2023/05/30 08:24:55;;;;;;;9.27;3.50;;;12.50;99.90;;;;;;5032482;28;20057;-69
2023/05/30 08:27:21;;;;;;;10.60;3.65;;;12.40;99.90;;;;;;5033188;28;20033;-69
2023/05/30 08:29:49;;;;;;;6.22;3.55;;;12.50;99.90;;;;;;5032894;28;20040;-69
2023/05/30 08:32:16;;;;;;;7.80;3.58;;;12.50;99.90;;;;;;5095329;22;20052;-68
2023/05/30 08:34:42;;;;;;;7.28;3.15;;;12.50;99.90;;;;;;5092465;28;20050;-68
2023/05/30 08:37:07;;;;;;;5.88;2.85;;;12.50;99.90;;;;;;5093107;28;20032;-69
2023/05/30 08:39:33;;;;;;;9.80;3.28;;;12.60;99.90;;;;;;5100440;28;20527;-67
2023/05/30 08:42:00;;;;;;;7.15;3.40;;;12.60;99.90;;;;;;5075183;28;20044;-68
2023/05/30 08:44:26;;;;;;;6.90;3.30;;;12.70;99.90;;;;;;5070236;28;20041;-67
2023/05/30 08:46:53;;;;;;;6.47;3.40;;;12.70;99.90;;;;;;5074871;28;20124;-68
2023/05/30 08:49:22;;;;;;;6.70;3.58;;;12.60;99.90;;;;;;5079906;28;20126;-67
2023/05/30 08:51:49;;;;;;;10.27;3.90;;;12.60;99.90;;;;;;5070868;28;20040;-68
2023/05/30 08:54:23;;;;;;;7.25;3.60;;;12.60;99.90;;;;;;5078982;28;20040;-67
2023/05/30 08:57:02;;;;;;;6.75;3.10;;;12.60;99.90;;;;;;5085346;28;20071;-67
2023/05/30 08:59:29;;;;;;;7.10;3.22;;;12.60;99.90;;;;;;5084289;28;20119;-68
2023/05/30 09:01:56;;;;;;;8.45;2.70;;;12.60;99.90;;;;;;5079204;28;20043;-68
2023/05/30 09:04:22;;;;;;;6.25;2.72;;;12.60;99.90;;;;;;5071345;28;20089;-68
2023/05/30 09:06:48;;;;;;;7.55;2.92;;;12.60;99.90;;;;;;5063865;28;20048;-68
2023/05/30 09:09:15;;;;;;;6.80;3.28;;;12.60;99.90;;;;;;5070276;28;20032;-68
2023/05/30 09:11:42;;;;;;;8.57;3.65;;;12.60;99.90;;;;;;5075327;28;20131;-68
2023/05/30 09:14:08;;;;;;;9.07;3.05;;;12.60;99.90;;;;;;5074587;28;20565;-68
2023/05/30 09:16:34;;;;;;;7.30;2.88;;;12.70;99.90;;;;;;5074807;28;20050;-68
2023/05/30 09:19:00;;;;;;;5.45;3.00;;;12.70;99.90;;;;;;5072746;28;20067;-68
2023/05/30 09:21:26;;;;;;;4.80;2.83;;;12.80;99.90;;;;;;5080524;28;20560;-68
2023/05/30 09:23:52;;;;;;;5.90;2.53;;;12.80;99.90;;;;;;5074080;28;20078;-68
2023/05/30 09:26:18;;;;;;;5.95;2.00;;;12.80;99.90;;;;;;5076658;28;20063;-68
2023/05/30 09:28:47;;;;;;;5.53;2.50;;;12.80;99.90;;;;;;5082069;28;20040;-68
2023/05/30 09:31:14;;;;;;;3.85;2.08;;;12.70;99.90;;;;;;5082834;28;20071;-67
2023/05/30 09:33:49;;;;;;;5.00;2.58;;;12.80;99.90;;;;;;5082470;28;20413;-68
2023/05/30 09:36:25;;;;;;;4.65;2.42;;;12.80;99.90;;;;;;5072470;28;20114;-66
2023/05/30 09:38:56;;;;;;;3.40;2.38;;;12.80;99.90;;;;;;5081067;28;20086;-66
2023/05/30 09:41:23;;;;;;;2.90;2.50;;;12.90;99.90;;;;;;5080036;28;20529;-66
2023/05/30 09:43:53;;;;;;;5.50;2.40;;;13.00;99.90;;;;;;5075623;28;20093;-66
2023/05/30 09:46:20;;;;;;;4.32;2.42;;;13.00;99.90;;;;;;5091810;28;20097;-66
2023/05/30 09:48:46;;;;;;;4.75;2.47;;;13.10;99.90;;;;;;5082270;28;20104;-65
2023/05/30 09:51:11;;;;;;;5.28;2.20;;;13.10;99.90;;;;;;5069075;28;20087;-66
2023/05/30 09:53:37;;;;;;;6.32;2.55;;;13.00;99.90;;;;;;5070288;28;20036;-65
2023/05/30 09:56:03;;;;;;;4.78;2.65;;;13.00;99.90;;;;;;5071235;28;20120;-65
2023/05/30 09:58:29;;;;;;;4.38;2.50;;;13.10;99.90;;;;;;5069655;28;20060;-65
2023/05/30 10:00:56;;;;;;;3.63;2.83;;;13.20;99.90;;;;;;5089182;28;20032;-65
2023/05/30 10:03:44;;;;;;;4.28;2.35;;;13.20;99.90;;;;;;5074689;28;20105;-65
2023/05/30 10:06:16;;;;;;;4.50;2.30;;;13.30;99.90;;;;;;5083347;28;20169;-65
2023/05/30 10:08:44;;;;;;;4.10;2.10;;;13.30;99.90;;;;;;5072376;28;20089;-66
2023/05/30 10:11:11;;;;;;;3.00;2.35;;;13.30;99.90;;;;;;5069562;28;20537;-65
2023/05/30 10:13:37;;;;;;;5.60;2.88;;;13.40;99.90;;;;;;5070524;28;20401;-65
2023/05/30 10:16:08;;;;;;;4.40;2.17;;;13.30;99.90;;;;;;5072310;28;20056;-65
2023/05/30 10:18:35;;;;;;;6.22;2.67;;;13.30;99.90;;;;;;5064504;28;20076;-65
2023/05/30 10:21:03;;;;;;;8.98;2.75;;;13.40;99.90;;;;;;5071482;28;20044;-65
2023/05/30 10:23:29;;;;;;;4.35;2.72;;;13.40;99.90;;;;;;5066420;28;20067;-67
2023/05/30 10:25:55;;;;;;;5.57;2.20;;;13.40;99.90;;;;;;5070506;28;20390;-66
2023/05/30 10:28:26;;;;;;;3.70;2.60;;;13.40;99.90;;;;;;5071044;28;20025;-66
2023/05/30 10:30:52;;;;;;;4.35;2.42;;;13.40;99.90;;;;;;5072205;28;20036;-65
2023/05/30 10:33:20;;;;;;;5.82;2.78;;;13.40;99.90;;;;;;5069721;28;20401;-66
2023/05/30 10:35:46;;;;;;;6.57;2.85;;;13.30;99.90;;;;;;5062904;28;20032;-66
2023/05/30 10:38:44;;;;;;;4.50;2.67;;;13.30;99.90;;;;;;5077042;28;20490;-65
2023/05/30 10:41:28;;;;;;;3.97;2.67;;;13.30;99.90;;;;;;5054093;28;20047;-65
2023/05/30 10:44:03;;;;;;;4.68;2.80;;;13.20;99.90;;;;;;5061427;28;20059;-65
2023/05/30 10:46:56;;;;;;;3.13;2.13;;;13.20;99.90;;;;;;5065128;28;20048;-65
2023/05/30 10:49:28;;;;;;;6.68;2.60;;;13.20;99.90;;;;;;5051455;28;20037;-65
2023/05/30 10:52:07;;;;;;;6.30;2.72;;;13.20;99.90;;;;;;5051308;28;20490;-65
2023/05/30 10:54:34;;;;;;;5.88;2.67;;;13.30;99.90;;;;;;5061978;28;20040;-65
2023/05/30 10:57:23;;;;;;;5.03;2.45;;;13.30;99.90;;;;;;5070651;28;20775;-65
2023/05/30 10:59:49;;;;;;;3.95;2.65;;;13.40;99.90;;;;;;5067742;28;20041;-65
2023/05/30 11:02:20;;;;;;;4.88;2.60;;;13.50;99.90;;;;;;5082763;28;20028;-65
2023/05/30 11:04:49;;;;;;;5.72;2.70;;;13.60;99.90;;;;;;5084181;28;20048;-64
2023/05/30 11:07:17;;;;;;;4.50;2.85;;;13.70;99.90;;;;;;5065839;28;20043;-65
2023/05/30 11:10:01;;;;;;;7.05;2.78;;;13.60;99.90;;;;;;5068750;28;20111;-65
2023/05/30 11:12:26;;;;;;;4.55;2.97;;;13.60;99.90;;;;;;5070213;28;20036;-64
2023/05/30 11:14:57;;;;;;;5.45;2.90;;;13.50;99.90;;;;;;5068679;28;20059;-64
2023/05/30 11:17:34;;;;;;;5.63;2.80;;;13.50;99.90;;;;;;5065372;28;20110;-65
2023/05/30 11:20:14;;;;;;;4.80;2.55;;;13.60;99.90;;;;;;5062998;28;20032;-65
2023/05/30 11:22:41;;;;;;;2.33;1.77;;;13.60;99.90;;;;;;5069313;28;20036;-64
2023/05/30 11:25:33;;;;;;;2.63;1.80;;;13.60;99.90;;;;;;5071263;28;20111;-64
2023/05/30 11:28:06;;;;;;;2.88;1.30;;;13.70;99.90;;;;;;5063167;28;20053;-64
2023/05/30 11:30:37;;;;;;;1.50;1.10;;;13.80;99.90;;;;;;5083996;28;20044;-64
2023/05/30 11:33:09;;;;;;;1.67;1.50;;;14.00;99.90;;;;;;5075830;28;20045;-64
2023/05/30 11:35:35;;;;;;;2.25;1.60;;;14.20;99.90;;;;;;5073803;28;20520;-64
2023/05/30 11:38:01;;;;;;;2.47;1.48;;;14.30;99.90;;;;;;5074188;28;20041;-64
2023/05/30 11:40:28;;;;;;;2.25;1.48;;;14.30;99.90;;;;;;5073264;28;20074;-64
2023/05/30 11:42:54;;;;;;;3.45;1.70;;;14.20;99.90;;;;;;5055874;28;20089;-64
2023/05/30 11:45:24;;;;;;;2.17;1.88;;;14.30;99.90;;;;;;5072668;28;20048;-64
2023/05/30 11:47:49;;;;;;;2.55;1.95;;;14.20;99.90;;;;;;5072425;28;20041;-63
2023/05/30 11:50:15;;;;;;;3.03;2.10;;;14.30;99.90;;;;;;5073979;28;20556;-63
2023/05/30 11:52:41;;;;;;;2.53;1.67;;;14.30;99.90;;;;;;5074325;28;20047;-63
2023/05/30 11:55:07;;;;;;;1.95;1.60;;;14.20;99.90;;;;;;5074020;28;20036;-64
2023/05/30 11:57:34;;;;;;;3.30;1.40;;;14.10;99.90;;;;;;5074130;28;20115;-63
2023/05/30 12:00:00;;;;;;;2.55;1.40;;;14.00;99.90;;;;;;5073057;28;20478;-64
2023/05/30 12:02:29;;;;;;;2.22;1.63;;;13.90;99.90;;;;;;5072597;28;20033;-64
2023/05/30 12:05:00;;;;;;;4.63;1.73;;;13.90;99.90;;;;;;5073357;28;20048;-64
2023/05/30 12:07:26;;;;;;;3.90;1.92;;;13.90;99.90;;;;;;5074027;28;20044;-64
2023/05/30 12:09:52;;;;;;;2.35;1.90;;;13.90;99.90;;;;;;5073634;28;20490;-64
2023/05/30 12:12:18;;;;;;;2.08;1.70;;;13.90;99.90;;;;;;5073468;28;20036;-64
2023/05/30 12:14:53;;;;;;;1.98;1.80;;;13.90;99.90;;;;;;5070972;28;20048;-64
2023/05/30 12:17:22;;;;;;;2.88;2.10;;;13.90;99.90;;;;;;5073007;28;20123;-65
2023/05/30 12:20:00;;;;;;;5.30;2.25;;;13.90;99.90;;;;;;5072275;28;20386;-64
2023/05/30 12:22:30;;;;;;;2.38;2.08;;;13.90;99.90;;;;;;5073580;28;20036;-65
2023/05/30 12:24:56;;;;;;;3.22;2.30;;;13.90;99.90;;;;;;5073306;28;20048;-64
2023/05/30 12:27:24;;;;;;;2.63;2.05;;;14.00;99.90;;;;;;5072424;28;20049;-64
2023/05/30 12:29:50;;;;;;;3.33;2.65;;;14.20;99.90;;;;;;5073267;28;20039;-65
2023/05/30 12:32:23;;;;;;;4.07;2.13;;;14.30;99.90;;;;;;5073158;28;20044;-64
2023/05/30 12:34:49;;;;;;;3.65;2.30;;;14.40;99.90;;;;;;5073084;28;20082;-64
2023/05/30 12:37:16;;;;;;;3.78;2.10;;;14.40;99.90;;;;;;5055385;28;20437;-64
2023/05/30 12:39:53;;;;;;;2.90;2.10;;;14.40;99.90;;;;;;5073265;28;20613;-65
2023/05/30 12:42:28;;;;;;;4.20;2.20;;;14.40;99.90;;;;;;5072946;28;20119;-64
2023/05/30 12:44:59;;;;;;;3.10;2.20;;;14.30;99.90;;;;;;5072031;28;20048;-64